sensor_id;sensor_type;location;lat;lon;timestamp;pressure;altitude;pressure_sealevel;temperature;humidity
21824;BME280;11074;48.596;9.238;2023-04-26T00:02:11;98277.28;;;9.61;88.93
21824;BME280;11074;48.596;9.238;2023-04-26T00:04:38;98279.41;;;9.59;88.93
21824;BME280;11074;48.596;9.238;2023-04-26T00:07:04;98285.31;;;9.61;88.58
21824;BME280;11074;48.596;9.238;2023-04-26T00:09:30;98274.00;;;9.54;89.84
21824;BME280;11074;48.596;9.238;2023-04-26T00:11:56;98268.88;;;9.69;89.53
21824;BME280;11074;48.596;9.238;2023-04-26T00:14:21;98277.31;;;9.78;88.90
21824;BME280;11074;48.596;9.238;2023-04-26T00:16:47;98279.72;;;9.80;88.23
21824;BME280;11074;48.596;9.238;2023-04-26T00:19:13;98284.00;;;9.81;87.34
21824;BME280;11074;48.596;9.238;2023-04-26T00:21:40;98280.44;;;9.75;87.59
21824;BME280;11074;48.596;9.238;2023-04-26T00:24:07;98271.41;;;9.76;88.77
21824;BME280;11074;48.596;9.238;2023-04-26T00:26:33;98279.47;;;9.81;88.16
21824;BME280;11074;48.596;9.238;2023-04-26T00:29:05;98269.38;;;9.66;87.44
21824;BME280;11074;48.596;9.238;2023-04-26T00:31:31;98270.84;;;9.57;88.02
21824;BME280;11074;48.596;9.238;2023-04-26T00:33:57;98273.34;;;9.47;89.12
21824;BME280;11074;48.596;9.238;2023-04-26T00:36:22;98266.63;;;9.45;89.15
21824;BME280;11074;48.596;9.238;2023-04-26T00:38:48;98263.06;;;9.56;89.33
21824;BME280;11074;48.596;9.238;2023-04-26T00:41:14;98265.81;;;9.61;88.91
21824;BME280;11074;48.596;9.238;2023-04-26T00:43:40;98269.28;;;9.61;88.33
21824;BME280;11074;48.596;9.238;2023-04-26T00:46:07;98263.66;;;9.58;87.78
21824;BME280;11074;48.596;9.238;2023-04-26T00:48:35;98262.03;;;9.57;86.96
21824;BME280;11074;48.596;9.238;2023-04-26T00:51:02;98276.03;;;9.47;87.52
21824;BME280;11074;48.596;9.238;2023-04-26T00:53:29;98274.41;;;9.46;87.86
21824;BME280;11074;48.596;9.238;2023-04-26T00:55:56;98280.59;;;9.35;89.42
21824;BME280;11074;48.596;9.238;2023-04-26T00:58:22;98276.97;;;9.41;88.43
21824;BME280;11074;48.596;9.238;2023-04-26T01:00:48;98267.69;;;9.44;88.05
21824;BME280;11074;48.596;9.238;2023-04-26T01:03:14;98284.09;;;9.36;87.53
21824;BME280;11074;48.596;9.238;2023-04-26T01:05:41;98282.84;;;9.27;88.20
21824;BME280;11074;48.596;9.238;2023-04-26T01:08:07;98282.72;;;9.33;88.20
21824;BME280;11074;48.596;9.238;2023-04-26T01:10:34;98284.66;;;9.38;87.33
21824;BME280;11074;48.596;9.238;2023-04-26T01:13:01;98287.69;;;9.13;88.54
21824;BME280;11074;48.596;9.238;2023-04-26T01:15:28;98275.78;;;9.04;88.85
21824;BME280;11074;48.596;9.238;2023-04-26T01:17:55;98283.22;;;9.02;89.13
21824;BME280;11074;48.596;9.238;2023-04-26T01:20:22;98292.75;;;8.98;89.45
21824;BME280;11074;48.596;9.238;2023-04-26T01:22:48;98295.13;;;9.11;88.93
21824;BME280;11074;48.596;9.238;2023-04-26T01:25:15;98282.72;;;9.05;88.54
21824;BME280;11074;48.596;9.238;2023-04-26T01:27:41;98289.22;;;9.09;87.53
21824;BME280;11074;48.596;9.238;2023-04-26T01:30:09;98283.84;;;9.21;88.31
21824;BME280;11074;48.596;9.238;2023-04-26T01:32:35;98287.28;;;9.21;87.44
21824;BME280;11074;48.596;9.238;2023-04-26T01:35:02;98282.25;;;9.08;86.79
21824;BME280;11074;48.596;9.238;2023-04-26T01:37:28;98281.03;;;8.99;86.71
21824;BME280;11074;48.596;9.238;2023-04-26T01:39:54;98282.88;;;8.98;86.56
21824;BME280;11074;48.596;9.238;2023-04-26T01:42:20;98280.88;;;9.05;86.90
21824;BME280;11074;48.596;9.238;2023-04-26T01:44:46;98294.03;;;8.95;85.52
21824;BME280;11074;48.596;9.238;2023-04-26T01:47:12;98282.63;;;9.00;86.43
21824;BME280;11074;48.596;9.238;2023-04-26T01:49:37;98289.34;;;9.02;86.26
21824;BME280;11074;48.596;9.238;2023-04-26T01:52:03;98291.53;;;9.05;85.85
21824;BME280;11074;48.596;9.238;2023-04-26T01:54:29;98293.38;;;9.05;85.96
21824;BME280;11074;48.596;9.238;2023-04-26T01:56:55;98295.03;;;8.78;86.51
21824;BME280;11074;48.596;9.238;2023-04-26T01:59:20;98290.44;;;8.62;86.94
21824;BME280;11074;48.596;9.238;2023-04-26T02:01:46;98284.31;;;8.49;87.30
21824;BME280;11074;48.596;9.238;2023-04-26T02:04:12;98283.75;;;8.47;87.09
21824;BME280;11074;48.596;9.238;2023-04-26T02:06:38;98288.50;;;8.45;87.15
21824;BME280;11074;48.596;9.238;2023-04-26T02:09:04;98284.59;;;8.36;87.93
21824;BME280;11074;48.596;9.238;2023-04-26T02:11:30;98285.50;;;8.42;87.15
21824;BME280;11074;48.596;9.238;2023-04-26T02:13:56;98277.78;;;8.29;87.60
21824;BME280;11074;48.596;9.238;2023-04-26T02:16:21;98285.19;;;8.27;87.62
21824;BME280;11074;48.596;9.238;2023-04-26T02:18:47;98279.97;;;8.32;87.10
21824;BME280;11074;48.596;9.238;2023-04-26T02:21:16;98280.88;;;8.37;85.96
21824;BME280;11074;48.596;9.238;2023-04-26T02:23:45;98279.09;;;8.54;85.64
21824;BME280;11074;48.596;9.238;2023-04-26T02:26:10;98285.81;;;8.57;85.50
21824;BME280;11074;48.596;9.238;2023-04-26T02:28:37;98286.41;;;8.59;85.22
21824;BME280;11074;48.596;9.238;2023-04-26T02:31:03;98284.91;;;8.51;84.90
21824;BME280;11074;48.596;9.238;2023-04-26T02:33:29;98284.84;;;8.35;84.65
21824;BME280;11074;48.596;9.238;2023-04-26T02:35:54;98281.81;;;8.31;84.05
21824;BME280;11074;48.596;9.238;2023-04-26T02:38:20;98275.22;;;8.22;84.51
21824;BME280;11074;48.596;9.238;2023-04-26T02:40:46;98272.56;;;8.22;83.35
21824;BME280;11074;48.596;9.238;2023-04-26T02:43:12;98272.06;;;8.25;83.23
21824;BME280;11074;48.596;9.238;2023-04-26T02:45:44;98267.22;;;8.22;83.56
21824;BME280;11074;48.596;9.238;2023-04-26T02:48:09;98281.69;;;8.38;85.63
21824;BME280;11074;48.596;9.238;2023-04-26T02:50:35;98277.16;;;8.38;83.52
21824;BME280;11074;48.596;9.238;2023-04-26T02:53:01;98285.50;;;8.30;82.91
21824;BME280;11074;48.596;9.238;2023-04-26T02:55:28;98289.34;;;8.34;83.34
21824;BME280;11074;48.596;9.238;2023-04-26T02:57:53;98295.34;;;8.18;84.62
21824;BME280;11074;48.596;9.238;2023-04-26T03:00:19;98300.47;;;8.08;86.00
21824;BME280;11074;48.596;9.238;2023-04-26T03:02:45;98312.94;;;7.96;86.47
21824;BME280;11074;48.596;9.238;2023-04-26T03:05:10;98305.22;;;7.94;86.36
21824;BME280;11074;48.596;9.238;2023-04-26T03:07:36;98298.94;;;7.89;86.08
21824;BME280;11074;48.596;9.238;2023-04-26T03:10:02;98299.78;;;7.89;86.17
21824;BME280;11074;48.596;9.238;2023-04-26T03:12:29;98304.28;;;7.89;85.86
21824;BME280;11074;48.596;9.238;2023-04-26T03:14:55;98303.34;;;7.83;86.30
21824;BME280;11074;48.596;9.238;2023-04-26T03:17:20;98303.00;;;7.80;86.74
21824;BME280;11074;48.596;9.238;2023-04-26T03:19:46;98296.41;;;7.94;86.68
21824;BME280;11074;48.596;9.238;2023-04-26T03:22:12;98299.63;;;7.96;85.95
21824;BME280;11074;48.596;9.238;2023-04-26T03:24:43;98296.50;;;7.99;86.10
21824;BME280;11074;48.596;9.238;2023-04-26T03:27:10;98294.09;;;7.98;86.10
21824;BME280;11074;48.596;9.238;2023-04-26T03:29:36;98300.25;;;7.98;86.26
21824;BME280;11074;48.596;9.238;2023-04-26T03:32:02;98293.84;;;7.99;84.99
21824;BME280;11074;48.596;9.238;2023-04-26T03:34:27;98295.38;;;7.83;85.93
21824;BME280;11074;48.596;9.238;2023-04-26T03:36:53;98294.78;;;7.93;86.26
21824;BME280;11074;48.596;9.238;2023-04-26T03:39:19;98294.78;;;8.05;84.41
21824;BME280;11074;48.596;9.238;2023-04-26T03:41:45;98292.47;;;7.97;85.02
21824;BME280;11074;48.596;9.238;2023-04-26T03:44:10;98288.66;;;7.92;83.96
21824;BME280;11074;48.596;9.238;2023-04-26T03:46:36;98285.50;;;8.07;83.58
21824;BME280;11074;48.596;9.238;2023-04-26T03:49:02;98288.53;;;8.11;83.78
21824;BME280;11074;48.596;9.238;2023-04-26T03:51:28;98285.72;;;8.17;83.18
21824;BME280;11074;48.596;9.238;2023-04-26T03:53:54;98290.28;;;8.05;82.38
21824;BME280;11074;48.596;9.238;2023-04-26T03:56:20;98300.34;;;8.03;82.74
21824;BME280;11074;48.596;9.238;2023-04-26T03:58:45;98287.59;;;7.93;84.22
21824;BME280;11074;48.596;9.238;2023-04-26T04:01:11;98285.75;;;7.59;86.28
21824;BME280;11074;48.596;9.238;2023-04-26T04:03:37;98293.47;;;7.49;86.49
21824;BME280;11074;48.596;9.238;2023-04-26T04:06:03;98290.59;;;7.51;86.52
21824;BME280;11074;48.596;9.238;2023-04-26T04:08:29;98291.50;;;7.56;86.89
21824;BME280;11074;48.596;9.238;2023-04-26T04:10:55;98303.09;;;7.50;87.51
21824;BME280;11074;48.596;9.238;2023-04-26T04:13:21;98296.56;;;7.34;88.09
21824;BME280;11074;48.596;9.238;2023-04-26T04:15:47;98301.09;;;7.34;88.06
21824;BME280;11074;48.596;9.238;2023-04-26T04:18:12;98293.31;;;7.32;88.82
21824;BME280;11074;48.596;9.238;2023-04-26T04:20:40;98305.28;;;7.42;88.66
21824;BME280;11074;48.596;9.238;2023-04-26T04:23:06;98296.69;;;7.28;89.69
21824;BME280;11074;48.596;9.238;2023-04-26T04:25:33;98300.47;;;7.20;91.01
21824;BME280;11074;48.596;9.238;2023-04-26T04:28:02;98294.50;;;7.37;90.24
21824;BME280;11074;48.596;9.238;2023-04-26T04:30:29;98301.00;;;7.64;89.74
21824;BME280;11074;48.596;9.238;2023-04-26T04:32:55;98308.41;;;7.62;89.69
21824;BME280;11074;48.596;9.238;2023-04-26T04:35:23;98302.66;;;7.76;88.90
21824;BME280;11074;48.596;9.238;2023-04-26T04:37:54;98302.16;;;7.56;89.63
21824;BME280;11074;48.596;9.238;2023-04-26T04:40:23;98310.75;;;7.70;88.14
21824;BME280;11074;48.596;9.238;2023-04-26T04:42:49;98314.44;;;7.80;88.08
21824;BME280;11074;48.596;9.238;2023-04-26T04:45:15;98306.69;;;7.56;87.64
21824;BME280;11074;48.596;9.238;2023-04-26T04:47:42;98309.66;;;7.36;88.08
21824;BME280;11074;48.596;9.238;2023-04-26T04:50:08;98308.91;;;7.17;89.03
21824;BME280;11074;48.596;9.238;2023-04-26T04:52:34;98312.63;;;7.28;89.04
21824;BME280;11074;48.596;9.238;2023-04-26T04:55:04;98313.94;;;7.37;88.39
21824;BME280;11074;48.596;9.238;2023-04-26T04:57:30;98307.34;;;7.40;87.72
21824;BME280;11074;48.596;9.238;2023-04-26T04:59:57;98312.50;;;7.34;86.76
21824;BME280;11074;48.596;9.238;2023-04-26T05:02:23;98322.03;;;7.54;87.04
21824;BME280;11074;48.596;9.238;2023-04-26T05:04:49;98317.78;;;7.64;86.94
21824;BME280;11074;48.596;9.238;2023-04-26T05:07:15;98321.97;;;7.72;86.47
21824;BME280;11074;48.596;9.238;2023-04-26T05:09:42;98327.53;;;7.82;86.35
21824;BME280;11074;48.596;9.238;2023-04-26T05:12:08;98318.41;;;7.89;85.44
21824;BME280;11074;48.596;9.238;2023-04-26T05:14:34;98321.53;;;7.98;84.63
21824;BME280;11074;48.596;9.238;2023-04-26T05:17:00;98331.72;;;7.89;85.13
21824;BME280;11074;48.596;9.238;2023-04-26T05:19:26;98326.13;;;7.91;85.28
21824;BME280;11074;48.596;9.238;2023-04-26T05:21:52;98329.59;;;7.80;86.07
21824;BME280;11074;48.596;9.238;2023-04-26T05:24:17;98326.47;;;7.83;85.81
21824;BME280;11074;48.596;9.238;2023-04-26T05:26:43;98333.56;;;7.89;86.14
21824;BME280;11074;48.596;9.238;2023-04-26T05:29:09;98340.50;;;7.90;86.94
21824;BME280;11074;48.596;9.238;2023-04-26T05:31:34;98343.16;;;7.90;86.53
21824;BME280;11074;48.596;9.238;2023-04-26T05:34:01;98341.53;;;7.89;86.94
21824;BME280;11074;48.596;9.238;2023-04-26T05:36:26;98344.31;;;7.94;86.77
21824;BME280;11074;48.596;9.238;2023-04-26T05:38:52;98343.97;;;8.02;87.01
21824;BME280;11074;48.596;9.238;2023-04-26T05:41:18;98348.84;;;8.05;87.40
21824;BME280;11074;48.596;9.238;2023-04-26T05:43:45;98346.19;;;8.17;87.54
21824;BME280;11074;48.596;9.238;2023-04-26T05:46:11;98354.03;;;8.23;87.70
21824;BME280;11074;48.596;9.238;2023-04-26T05:48:37;98349.09;;;8.27;87.33
21824;BME280;11074;48.596;9.238;2023-04-26T05:51:02;98356.97;;;8.33;86.97
21824;BME280;11074;48.596;9.238;2023-04-26T05:53:28;98361.50;;;8.33;87.11
21824;BME280;11074;48.596;9.238;2023-04-26T05:55:54;98353.94;;;8.41;86.80
21824;BME280;11074;48.596;9.238;2023-04-26T05:58:20;98356.50;;;8.48;86.34
21824;BME280;11074;48.596;9.238;2023-04-26T06:00:45;98366.69;;;8.51;86.41
21824;BME280;11074;48.596;9.238;2023-04-26T06:03:12;98362.84;;;8.47;86.69
21824;BME280;11074;48.596;9.238;2023-04-26T06:05:37;98362.19;;;8.51;85.76
21824;BME280;11074;48.596;9.238;2023-04-26T06:08:04;98362.28;;;8.57;86.47
21824;BME280;11074;48.596;9.238;2023-04-26T06:10:30;98355.78;;;8.64;86.43
21824;BME280;11074;48.596;9.238;2023-04-26T06:12:56;98361.22;;;8.69;86.17
21824;BME280;11074;48.596;9.238;2023-04-26T06:15:21;98361.06;;;8.76;86.89
21824;BME280;11074;48.596;9.238;2023-04-26T06:17:47;98365.72;;;8.80;85.94
21824;BME280;11074;48.596;9.238;2023-04-26T06:20:12;98367.91;;;8.83;85.85
21824;BME280;11074;48.596;9.238;2023-04-26T06:22:38;98366.19;;;8.77;86.14
21824;BME280;11074;48.596;9.238;2023-04-26T06:25:05;98375.78;;;8.78;86.00
21824;BME280;11074;48.596;9.238;2023-04-26T06:27:31;98364.91;;;8.80;85.82
21824;BME280;11074;48.596;9.238;2023-04-26T06:29:57;98374.03;;;8.84;86.06
21824;BME280;11074;48.596;9.238;2023-04-26T06:32:22;98367.41;;;8.86;85.82
21824;BME280;11074;48.596;9.238;2023-04-26T06:34:48;98374.13;;;8.89;86.19
21824;BME280;11074;48.596;9.238;2023-04-26T06:37:14;98372.38;;;8.94;85.30
21824;BME280;11074;48.596;9.238;2023-04-26T06:39:40;98383.28;;;9.04;85.56
21824;BME280;11074;48.596;9.238;2023-04-26T06:42:06;98380.53;;;9.16;85.06
21824;BME280;11074;48.596;9.238;2023-04-26T06:44:32;98381.22;;;9.23;84.58
21824;BME280;11074;48.596;9.238;2023-04-26T06:46:58;98381.06;;;9.30;84.42
21824;BME280;11074;48.596;9.238;2023-04-26T06:49:24;98380.84;;;9.31;84.42
21824;BME280;11074;48.596;9.238;2023-04-26T06:51:50;98380.25;;;9.29;84.43
21824;BME280;11074;48.596;9.238;2023-04-26T06:54:19;98374.78;;;9.36;84.02
21824;BME280;11074;48.596;9.238;2023-04-26T06:56:45;98365.97;;;9.35;83.29
21824;BME280;11074;48.596;9.238;2023-04-26T06:59:11;98368.25;;;9.43;81.65
21824;BME280;11074;48.596;9.238;2023-04-26T07:01:38;98376.53;;;9.58;81.80
21824;BME280;11074;48.596;9.238;2023-04-26T07:04:05;98366.53;;;9.65;81.58
21824;BME280;11074;48.596;9.238;2023-04-26T07:06:36;98363.38;;;9.68;80.32
21824;BME280;11074;48.596;9.238;2023-04-26T07:09:02;98363.38;;;9.68;81.14
21824;BME280;11074;48.596;9.238;2023-04-26T07:11:30;98359.00;;;9.62;79.15
21824;BME280;11074;48.596;9.238;2023-04-26T07:13:56;98354.13;;;9.59;79.15
21824;BME280;11074;48.596;9.238;2023-04-26T07:16:22;98359.47;;;9.59;78.44
21824;BME280;11074;48.596;9.238;2023-04-26T07:18:47;98350.44;;;9.60;78.40
21824;BME280;11074;48.596;9.238;2023-04-26T07:21:14;98353.72;;;9.51;78.32
21824;BME280;11074;48.596;9.238;2023-04-26T07:23:40;98353.88;;;9.44;75.56
21824;BME280;11074;48.596;9.238;2023-04-26T07:26:06;98346.91;;;9.43;76.03
21824;BME280;11074;48.596;9.238;2023-04-26T07:28:32;98351.03;;;9.51;75.30
21824;BME280;11074;48.596;9.238;2023-04-26T07:30:59;98349.75;;;9.53;76.70
21824;BME280;11074;48.596;9.238;2023-04-26T07:33:25;98348.78;;;9.59;75.54
21824;BME280;11074;48.596;9.238;2023-04-26T07:35:57;98353.31;;;9.59;74.66
21824;BME280;11074;48.596;9.238;2023-04-26T07:38:24;98352.94;;;9.67;74.62
21824;BME280;11074;48.596;9.238;2023-04-26T07:40:50;98350.75;;;9.64;72.54
21824;BME280;11074;48.596;9.238;2023-04-26T07:43:17;98347.09;;;9.70;72.27
21824;BME280;11074;48.596;9.238;2023-04-26T07:45:43;98341.50;;;9.71;70.70
21824;BME280;11074;48.596;9.238;2023-04-26T07:48:10;98339.44;;;9.73;70.80
21824;BME280;11074;48.596;9.238;2023-04-26T07:50:36;98342.75;;;9.81;68.94
21824;BME280;11074;48.596;9.238;2023-04-26T07:53:01;98342.59;;;9.70;69.51
21824;BME280;11074;48.596;9.238;2023-04-26T07:55:27;98337.00;;;9.72;70.25
21824;BME280;11074;48.596;9.238;2023-04-26T07:57:53;98340.56;;;9.77;71.11
21824;BME280;11074;48.596;9.238;2023-04-26T08:00:19;98343.88;;;9.85;68.87
21824;BME280;11074;48.596;9.238;2023-04-26T08:02:46;98338.63;;;9.90;68.44
21824;BME280;11074;48.596;9.238;2023-04-26T08:05:13;98344.53;;;9.92;67.86
21824;BME280;11074;48.596;9.238;2023-04-26T08:07:43;98349.47;;;9.83;65.99
21824;BME280;11074;48.596;9.238;2023-04-26T08:10:09;98340.16;;;9.86;65.00
21824;BME280;11074;48.596;9.238;2023-04-26T08:12:37;98346.78;;;9.83;65.26
21824;BME280;11074;48.596;9.238;2023-04-26T08:15:04;98342.25;;;9.84;66.12
21824;BME280;11074;48.596;9.238;2023-04-26T08:17:30;98347.03;;;9.82;66.68
21824;BME280;11074;48.596;9.238;2023-04-26T08:19:57;98349.94;;;9.80;64.74
21824;BME280;11074;48.596;9.238;2023-04-26T08:22:23;98350.28;;;9.84;66.28
21824;BME280;11074;48.596;9.238;2023-04-26T08:24:53;98346.84;;;9.71;63.99
21824;BME280;11074;48.596;9.238;2023-04-26T08:27:19;98349.63;;;9.77;62.90
21824;BME280;11074;48.596;9.238;2023-04-26T08:29:45;98334.81;;;9.86;63.61
21824;BME280;11074;48.596;9.238;2023-04-26T08:32:11;98347.53;;;9.95;63.92
21824;BME280;11074;48.596;9.238;2023-04-26T08:34:37;98340.97;;;10.03;61.85
21824;BME280;11074;48.596;9.238;2023-04-26T08:37:03;98353.53;;;10.19;62.85
21824;BME280;11074;48.596;9.238;2023-04-26T08:39:29;98356.75;;;10.38;61.33
21824;BME280;11074;48.596;9.238;2023-04-26T08:42:04;98352.34;;;10.48;60.08
21824;BME280;11074;48.596;9.238;2023-04-26T08:44:34;98346.00;;;10.54;59.13
21824;BME280;11074;48.596;9.238;2023-04-26T08:47:05;98349.06;;;10.63;60.01
21824;BME280;11074;48.596;9.238;2023-04-26T08:49:45;98345.91;;;10.66;61.44
21824;BME280;11074;48.596;9.238;2023-04-26T08:52:18;98343.28;;;10.71;58.84
21824;BME280;11074;48.596;9.238;2023-04-26T08:54:52;98347.09;;;10.75;60.05
21824;BME280;11074;48.596;9.238;2023-04-26T08:57:19;98353.06;;;10.82;61.07
21824;BME280;11074;48.596;9.238;2023-04-26T08:59:46;98348.81;;;10.86;59.10
21824;BME280;11074;48.596;9.238;2023-04-26T09:02:18;98353.06;;;10.82;58.31
21824;BME280;11074;48.596;9.238;2023-04-26T09:04:48;98350.19;;;10.88;57.33
21824;BME280;11074;48.596;9.238;2023-04-26T09:07:22;98349.75;;;10.96;58.59
21824;BME280;11074;48.596;9.238;2023-04-26T09:09:53;98354.16;;;11.08;57.76
21824;BME280;11074;48.596;9.238;2023-04-26T09:12:20;98353.16;;;11.14;57.86
21824;BME280;11074;48.596;9.238;2023-04-26T09:14:46;98354.03;;;11.19;57.07
21824;BME280;11074;48.596;9.238;2023-04-26T09:17:28;98355.13;;;11.23;57.27
21824;BME280;11074;48.596;9.238;2023-04-26T09:19:56;98349.84;;;11.28;56.15
21824;BME280;11074;48.596;9.238;2023-04-26T09:22:29;98342.47;;;11.40;56.67
21824;BME280;11074;48.596;9.238;2023-04-26T09:24:56;98338.56;;;11.53;57.00
21824;BME280;11074;48.596;9.238;2023-04-26T09:27:34;98326.31;;;11.57;54.75
21824;BME280;11074;48.596;9.238;2023-04-26T09:33:00;98320.84;;;11.74;55.29
21824;BME280;11074;48.596;9.238;2023-04-26T09:35:35;98321.63;;;11.69;53.94
21824;BME280;11074;48.596;9.238;2023-04-26T09:38:16;98314.13;;;11.44;55.03
21824;BME280;11074;48.596;9.238;2023-04-26T09:40:50;98321.53;;;11.64;55.88
21824;BME280;11074;48.596;9.238;2023-04-26T09:43:17;98311.44;;;11.71;55.04
21824;BME280;11074;48.596;9.238;2023-04-26T09:50:53;98307.47;;;12.10;56.67
21824;BME280;11074;48.596;9.238;2023-04-26T09:53:35;98302.63;;;12.07;56.48
21824;BME280;11074;48.596;9.238;2023-04-26T09:56:19;98294.97;;;12.26;54.76
21824;BME280;11074;48.596;9.238;2023-04-26T10:01:14;98308.78;;;12.50;54.72
21824;BME280;11074;48.596;9.238;2023-04-26T10:03:41;98302.63;;;12.59;54.85
21824;BME280;11074;48.596;9.238;2023-04-26T10:06:11;98299.47;;;12.67;55.36
21824;BME280;11074;48.596;9.238;2023-04-26T10:08:37;98301.91;;;12.69;54.82
21824;BME280;11074;48.596;9.238;2023-04-26T10:11:05;98304.75;;;12.52;51.81
21824;BME280;11074;48.596;9.238;2023-04-26T10:13:32;98296.44;;;12.54;53.17
21824;BME280;11074;48.596;9.238;2023-04-26T10:16:00;98296.91;;;12.41;52.53
21824;BME280;11074;48.596;9.238;2023-04-26T10:18:26;98296.09;;;12.40;53.85
21824;BME280;11074;48.596;9.238;2023-04-26T10:20:57;98282.19;;;12.48;53.54
21824;BME280;11074;48.596;9.238;2023-04-26T10:23:24;98287.63;;;12.58;55.85
21824;BME280;11074;48.596;9.238;2023-04-26T10:25:52;98290.31;;;12.53;55.56
21824;BME280;11074;48.596;9.238;2023-04-26T10:28:53;98289.00;;;12.66;56.87
21824;BME280;11074;48.596;9.238;2023-04-26T10:31:19;98291.66;;;12.56;53.73
21824;BME280;11074;48.596;9.238;2023-04-26T10:34:19;98294.34;;;12.61;52.92
21824;BME280;11074;48.596;9.238;2023-04-26T10:37:09;98289.75;;;12.56;52.39
21824;BME280;11074;48.596;9.238;2023-04-26T10:39:37;98294.22;;;12.41;52.50
21824;BME280;11074;48.596;9.238;2023-04-26T10:42:27;98287.53;;;12.38;52.41
21824;BME280;11074;48.596;9.238;2023-04-26T10:44:58;98285.72;;;12.54;52.66
21824;BME280;11074;48.596;9.238;2023-04-26T10:47:30;98287.16;;;12.71;52.77
21824;BME280;11074;48.596;9.238;2023-04-26T10:50:09;98281.53;;;12.78;52.62
21824;BME280;11074;48.596;9.238;2023-04-26T10:52:38;98288.53;;;12.84;54.14
21824;BME280;11074;48.596;9.238;2023-04-26T10:55:40;98287.50;;;12.95;52.48
21824;BME280;11074;48.596;9.238;2023-04-26T10:58:30;98259.84;;;13.00;52.52
21824;BME280;11074;48.596;9.238;2023-04-26T11:04:01;98261.28;;;13.22;52.83
21824;BME280;11074;48.596;9.238;2023-04-26T11:06:54;98254.03;;;13.18;50.09
21824;BME280;11074;48.596;9.238;2023-04-26T11:09:36;98259.16;;;13.29;51.96
21824;BME280;11074;48.596;9.238;2023-04-26T11:12:11;98260.78;;;13.35;50.76
21824;BME280;11074;48.596;9.238;2023-04-26T11:14:38;98256.22;;;13.46;50.29
21824;BME280;11074;48.596;9.238;2023-04-26T11:17:05;98249.50;;;13.54;50.52
21824;BME280;11074;48.596;9.238;2023-04-26T11:19:31;98250.81;;;13.66;50.19
21824;BME280;11074;48.596;9.238;2023-04-26T11:22:01;98243.81;;;13.85;50.51
21824;BME280;11074;48.596;9.238;2023-04-26T11:24:30;98248.38;;;14.10;49.77
21824;BME280;11074;48.596;9.238;2023-04-26T11:26:57;98239.19;;;14.16;48.30
21824;BME280;11074;48.596;9.238;2023-04-26T11:29:24;98240.00;;;14.12;48.38
21824;BME280;11074;48.596;9.238;2023-04-26T11:31:55;98234.34;;;14.18;50.56
21824;BME280;11074;48.596;9.238;2023-04-26T11:34:34;98235.19;;;14.09;50.01
21824;BME280;11074;48.596;9.238;2023-04-26T11:37:03;98226.31;;;14.03;47.28
21824;BME280;11074;48.596;9.238;2023-04-26T11:39:31;98227.09;;;14.14;50.08
21824;BME280;11074;48.596;9.238;2023-04-26T11:42:08;98215.78;;;14.22;49.32
21824;BME280;11074;48.596;9.238;2023-04-26T11:44:35;98212.50;;;14.40;48.00
21824;BME280;11074;48.596;9.238;2023-04-26T11:47:02;98206.84;;;14.46;48.82
21824;BME280;11074;48.596;9.238;2023-04-26T11:49:33;98207.16;;;14.35;48.97
21824;BME280;11074;48.596;9.238;2023-04-26T11:52:02;98195.06;;;14.32;50.16
21824;BME280;11074;48.596;9.238;2023-04-26T11:54:31;98205.81;;;14.32;50.34
21824;BME280;11074;48.596;9.238;2023-04-26T11:56:57;98207.47;;;14.13;49.75
21824;BME280;11074;48.596;9.238;2023-04-26T11:59:25;98208.22;;;14.24;50.17
21824;BME280;11074;48.596;9.238;2023-04-26T12:01:52;98204.00;;;14.13;49.04
21824;BME280;11074;48.596;9.238;2023-04-26T12:04:18;98197.28;;;14.05;49.91
21824;BME280;11074;48.596;9.238;2023-04-26T12:06:45;98193.50;;;14.06;50.07
21824;BME280;11074;48.596;9.238;2023-04-26T12:09:12;98199.94;;;14.15;50.23
21824;BME280;11074;48.596;9.238;2023-04-26T12:11:39;98191.81;;;14.30;50.25
21824;BME280;11074;48.596;9.238;2023-04-26T12:14:04;98184.44;;;14.61;49.30
21824;BME280;11074;48.596;9.238;2023-04-26T12:16:35;98187.34;;;14.70;48.38
21824;BME280;11074;48.596;9.238;2023-04-26T12:19:04;98191.78;;;14.94;48.26
21824;BME280;11074;48.596;9.238;2023-04-26T12:21:42;98189.53;;;15.06;48.61
21824;BME280;11074;48.596;9.238;2023-04-26T12:24:23;98187.31;;;15.18;47.53
21824;BME280;11074;48.596;9.238;2023-04-26T12:26:49;98188.25;;;15.38;46.99
21824;BME280;11074;48.596;9.238;2023-04-26T12:29:15;98195.16;;;15.44;46.30
21824;BME280;11074;48.596;9.238;2023-04-26T12:31:41;98189.66;;;15.64;46.28
21824;BME280;11074;48.596;9.238;2023-04-26T12:34:07;98191.16;;;15.75;46.55
21824;BME280;11074;48.596;9.238;2023-04-26T12:36:33;98194.19;;;15.68;45.95
21824;BME280;11074;48.596;9.238;2023-04-26T12:38:58;98177.19;;;15.68;45.71
21824;BME280;11074;48.596;9.238;2023-04-26T12:41:28;98179.47;;;15.85;45.88
21824;BME280;11074;48.596;9.238;2023-04-26T12:43:53;98179.34;;;15.95;45.97
21824;BME280;11074;48.596;9.238;2023-04-26T12:46:19;98171.00;;;15.96;44.95
21824;BME280;11074;48.596;9.238;2023-04-26T12:48:45;98171.69;;;15.83;44.94
21824;BME280;11074;48.596;9.238;2023-04-26T12:51:11;98168.31;;;15.67;44.33
21824;BME280;11074;48.596;9.238;2023-04-26T12:53:37;98158.28;;;15.73;45.24
21824;BME280;11074;48.596;9.238;2023-04-26T12:56:03;98163.75;;;15.92;45.25
21824;BME280;11074;48.596;9.238;2023-04-26T12:58:29;98161.72;;;16.07;44.80
21824;BME280;11074;48.596;9.238;2023-04-26T13:00:55;98149.81;;;16.08;44.20
21824;BME280;11074;48.596;9.238;2023-04-26T13:03:20;98157.97;;;16.03;44.14
21824;BME280;11074;48.596;9.238;2023-04-26T13:05:46;98155.84;;;16.00;44.96
21824;BME280;11074;48.596;9.238;2023-04-26T13:08:11;98152.38;;;15.95;44.24
21824;BME280;11074;48.596;9.238;2023-04-26T13:10:39;98148.88;;;15.94;44.77
21824;BME280;11074;48.596;9.238;2023-04-26T13:13:06;98157.41;;;16.06;45.13
21824;BME280;11074;48.596;9.238;2023-04-26T13:15:32;98158.25;;;16.02;43.44
21824;BME280;11074;48.596;9.238;2023-04-26T13:17:57;98151.75;;;16.26;44.93
21824;BME280;11074;48.596;9.238;2023-04-26T13:20:23;98146.00;;;16.57;44.70
21824;BME280;11074;48.596;9.238;2023-04-26T13:22:49;98144.09;;;16.76;43.30
21824;BME280;11074;48.596;9.238;2023-04-26T13:25:15;98143.72;;;17.01;44.26